sensor_id;sensor_type;location;lat;lon;timestamp;P1;durP1;ratioP1;P2;durP2;ratioP2
65998;SDS011;52766;56.008;37.440;2023-09-19T00:01:40;12.57;;;6.68;;
65998;SDS011;52766;56.008;37.440;2023-09-19T00:04:09;13.77;;;6.75;;
65998;SDS011;52766;56.008;37.440;2023-09-19T00:06:38;11.27;;;6.97;;
65998;SDS011;52766;56.008;37.440;2023-09-19T00:09:04;14.68;;;7.22;;
65998;SDS011;52766;56.008;37.440;2023-09-19T00:11:33;11.63;;;6.40;;
65998;SDS011;52766;56.008;37.440;2023-09-19T00:13:59;11.73;;;6.10;;
65998;SDS011;52766;56.008;37.440;2023-09-19T00:16:25;12.57;;;6.85;;
65998;SDS011;52766;56.008;37.440;2023-09-19T00:18:52;12.52;;;6.63;;
65998;SDS011;52766;56.008;37.440;2023-09-19T00:21:18;12.50;;;6.45;;
65998;SDS011;52766;56.008;37.440;2023-09-19T00:23:47;11.68;;;6.63;;
65998;SDS011;52766;56.008;37.440;2023-09-19T00:26:13;16.25;;;6.63;;
65998;SDS011;52766;56.008;37.440;2023-09-19T00:28:41;14.02;;;6.60;;
65998;SDS011;52766;56.008;37.440;2023-09-19T00:31:09;12.45;;;6.97;;
65998;SDS011;52766;56.008;37.440;2023-09-19T00:33:35;13.15;;;6.70;;
65998;SDS011;52766;56.008;37.440;2023-09-19T00:36:02;15.88;;;6.95;;
65998;SDS011;52766;56.008;37.440;2023-09-19T00:38:31;13.27;;;6.43;;
65998;SDS011;52766;56.008;37.440;2023-09-19T00:40:57;12.93;;;6.95;;
65998;SDS011;52766;56.008;37.440;2023-09-19T00:43:26;12.70;;;6.75;;
65998;SDS011;52766;56.008;37.440;2023-09-19T00:45:54;12.13;;;6.65;;
65998;SDS011;52766;56.008;37.440;2023-09-19T00:48:20;14.20;;;7.40;;
65998;SDS011;52766;56.008;37.440;2023-09-19T00:50:48;11.82;;;6.25;;
65998;SDS011;52766;56.008;37.440;2023-09-19T00:53:19;13.18;;;7.05;;
65998;SDS011;52766;56.008;37.440;2023-09-19T00:55:46;13.88;;;7.30;;
65998;SDS011;52766;56.008;37.440;2023-09-19T00:58:12;15.15;;;7.32;;
65998;SDS011;52766;56.008;37.440;2023-09-19T01:00:40;13.23;;;6.93;;
65998;SDS011;52766;56.008;37.440;2023-09-19T01:03:06;16.27;;;8.63;;
65998;SDS011;52766;56.008;37.440;2023-09-19T01:05:35;16.02;;;8.18;;
65998;SDS011;52766;56.008;37.440;2023-09-19T01:08:01;14.00;;;8.10;;
65998;SDS011;52766;56.008;37.440;2023-09-19T01:10:28;17.23;;;7.90;;
65998;SDS011;52766;56.008;37.440;2023-09-19T01:13:05;15.60;;;7.90;;
65998;SDS011;52766;56.008;37.440;2023-09-19T01:15:43;14.80;;;7.95;;
65998;SDS011;52766;56.008;37.440;2023-09-19T01:32:08;14.75;;;7.68;;
65998;SDS011;52766;56.008;37.440;2023-09-19T01:37:14;15.15;;;8.40;;
65998;SDS011;52766;56.008;37.440;2023-09-19T01:39:46;19.15;;;8.20;;
65998;SDS011;52766;56.008;37.440;2023-09-19T01:42:24;16.65;;;8.35;;
65998;SDS011;52766;56.008;37.440;2023-09-19T01:44:59;13.65;;;7.85;;
65998;SDS011;52766;56.008;37.440;2023-09-19T01:47:49;14.43;;;8.13;;
65998;SDS011;52766;56.008;37.440;2023-09-19T01:50:24;19.30;;;8.85;;
65998;SDS011;52766;56.008;37.440;2023-09-19T01:53:02;15.38;;;8.50;;
65998;SDS011;52766;56.008;37.440;2023-09-19T01:58:06;15.25;;;7.97;;
65998;SDS011;52766;56.008;37.440;2023-09-19T02:00:36;25.77;;;9.00;;
65998;SDS011;52766;56.008;37.440;2023-09-19T02:03:03;15.63;;;9.27;;
65998;SDS011;52766;56.008;37.440;2023-09-19T02:05:29;14.70;;;7.63;;
65998;SDS011;52766;56.008;37.440;2023-09-19T02:07:56;15.57;;;8.20;;
65998;SDS011;52766;56.008;37.440;2023-09-19T02:10:22;17.67;;;9.48;;
65998;SDS011;52766;56.008;37.440;2023-09-19T02:12:49;17.98;;;8.23;;
65998;SDS011;52766;56.008;37.440;2023-09-19T02:15:16;16.40;;;9.98;;
65998;SDS011;52766;56.008;37.440;2023-09-19T02:17:43;16.83;;;8.88;;
65998;SDS011;52766;56.008;37.440;2023-09-19T02:20:12;17.58;;;8.45;;
65998;SDS011;52766;56.008;37.440;2023-09-19T02:22:39;16.60;;;8.93;;
65998;SDS011;52766;56.008;37.440;2023-09-19T02:25:24;18.20;;;9.35;;
65998;SDS011;52766;56.008;37.440;2023-09-19T02:27:52;17.65;;;9.05;;
65998;SDS011;52766;56.008;37.440;2023-09-19T02:30:21;17.38;;;9.27;;
65998;SDS011;52766;56.008;37.440;2023-09-19T02:32:51;18.52;;;9.63;;
65998;SDS011;52766;56.008;37.440;2023-09-19T02:35:18;16.52;;;8.43;;
65998;SDS011;52766;56.008;37.440;2023-09-19T02:37:46;16.90;;;8.93;;
65998;SDS011;52766;56.008;37.440;2023-09-19T02:40:15;16.00;;;8.90;;
65998;SDS011;52766;56.008;37.440;2023-09-19T02:42:45;18.27;;;9.27;;
65998;SDS011;52766;56.008;37.440;2023-09-19T02:45:16;15.73;;;8.43;;
65998;SDS011;52766;56.008;37.440;2023-09-19T02:47:45;17.13;;;9.25;;
65998;SDS011;52766;56.008;37.440;2023-09-19T02:50:12;15.07;;;8.45;;
65998;SDS011;52766;56.008;37.440;2023-09-19T02:52:41;20.00;;;9.60;;
65998;SDS011;52766;56.008;37.440;2023-09-19T02:55:09;15.45;;;7.88;;
65998;SDS011;52766;56.008;37.440;2023-09-19T02:57:36;13.80;;;8.25;;
65998;SDS011;52766;56.008;37.440;2023-09-19T03:00:07;16.08;;;8.40;;
65998;SDS011;52766;56.008;37.440;2023-09-19T03:02:36;14.30;;;8.07;;
65998;SDS011;52766;56.008;37.440;2023-09-19T03:05:04;16.13;;;8.68;;
65998;SDS011;52766;56.008;37.440;2023-09-19T03:07:33;15.23;;;7.75;;
65998;SDS011;52766;56.008;37.440;2023-09-19T03:10:00;17.17;;;9.15;;
65998;SDS011;52766;56.008;37.440;2023-09-19T03:12:26;16.00;;;7.30;;
65998;SDS011;52766;56.008;37.440;2023-09-19T03:14:53;11.90;;;7.10;;
65998;SDS011;52766;56.008;37.440;2023-09-19T03:17:20;14.93;;;7.50;;
65998;SDS011;52766;56.008;37.440;2023-09-19T03:19:46;14.65;;;7.55;;
65998;SDS011;52766;56.008;37.440;2023-09-19T03:22:14;13.60;;;7.35;;
65998;SDS011;52766;56.008;37.440;2023-09-19T03:24:41;13.70;;;7.15;;
65998;SDS011;52766;56.008;37.440;2023-09-19T03:27:09;13.20;;;7.97;;
65998;SDS011;52766;56.008;37.440;2023-09-19T03:29:39;16.17;;;7.65;;
65998;SDS011;52766;56.008;37.440;2023-09-19T03:32:06;12.57;;;7.75;;
65998;SDS011;52766;56.008;37.440;2023-09-19T03:34:32;15.43;;;7.20;;
65998;SDS011;52766;56.008;37.440;2023-09-19T03:36:58;13.35;;;6.90;;
65998;SDS011;52766;56.008;37.440;2023-09-19T03:39:25;17.23;;;7.13;;
65998;SDS011;52766;56.008;37.440;2023-09-19T03:41:52;12.30;;;7.00;;
65998;SDS011;52766;56.008;37.440;2023-09-19T03:44:18;13.15;;;6.50;;
65998;SDS011;52766;56.008;37.440;2023-09-19T03:46:44;14.15;;;6.45;;
65998;SDS011;52766;56.008;37.440;2023-09-19T03:49:10;11.75;;;6.90;;
65998;SDS011;52766;56.008;37.440;2023-09-19T03:51:35;11.95;;;7.05;;
65998;SDS011;52766;56.008;37.440;2023-09-19T03:54:03;18.90;;;13.98;;
65998;SDS011;52766;56.008;37.440;2023-09-19T03:56:29;26.00;;;18.52;;
65998;SDS011;52766;56.008;37.440;2023-09-19T03:58:56;26.42;;;19.35;;
65998;SDS011;52766;56.008;37.440;2023-09-19T04:01:22;29.48;;;21.23;;
65998;SDS011;52766;56.008;37.440;2023-09-19T04:03:48;28.35;;;19.83;;
65998;SDS011;52766;56.008;37.440;2023-09-19T04:06:17;30.38;;;18.05;;
65998;SDS011;52766;56.008;37.440;2023-09-19T04:08:43;16.77;;;9.68;;
65998;SDS011;52766;56.008;37.440;2023-09-19T04:11:12;18.58;;;10.93;;
65998;SDS011;52766;56.008;37.440;2023-09-19T04:13:41;16.83;;;9.48;;
65998;SDS011;52766;56.008;37.440;2023-09-19T04:16:10;14.43;;;7.53;;
65998;SDS011;52766;56.008;37.440;2023-09-19T04:18:36;13.90;;;7.78;;
65998;SDS011;52766;56.008;37.440;2023-09-19T04:21:31;16.40;;;7.63;;
65998;SDS011;52766;56.008;37.440;2023-09-19T04:23:57;12.80;;;7.53;;
65998;SDS011;52766;56.008;37.440;2023-09-19T04:26:23;14.45;;;7.68;;
65998;SDS011;52766;56.008;37.440;2023-09-19T04:28:54;10.10;;;6.13;;
65998;SDS011;52766;56.008;37.440;2023-09-19T04:31:36;13.32;;;7.15;;
65998;SDS011;52766;56.008;37.440;2023-09-19T04:34:04;12.32;;;6.75;;
65998;SDS011;52766;56.008;37.440;2023-09-19T04:36:29;12.60;;;7.15;;
65998;SDS011;52766;56.008;37.440;2023-09-19T04:38:55;11.38;;;6.47;;
65998;SDS011;52766;56.008;37.440;2023-09-19T04:41:32;11.40;;;6.10;;
65998;SDS011;52766;56.008;37.440;2023-09-19T04:44:00;12.15;;;6.47;;
65998;SDS011;52766;56.008;37.440;2023-09-19T04:46:27;13.00;;;6.35;;
65998;SDS011;52766;56.008;37.440;2023-09-19T04:48:53;11.73;;;6.75;;
65998;SDS011;52766;56.008;37.440;2023-09-19T04:51:19;11.10;;;6.55;;
65998;SDS011;52766;56.008;37.440;2023-09-19T04:53:46;14.30;;;7.03;;
65998;SDS011;52766;56.008;37.440;2023-09-19T04:56:13;16.77;;;6.97;;
65998;SDS011;52766;56.008;37.440;2023-09-19T04:58:39;13.07;;;7.63;;
65998;SDS011;52766;56.008;37.440;2023-09-19T05:01:09;13.00;;;8.25;;
65998;SDS011;52766;56.008;37.440;2023-09-19T05:03:41;15.93;;;8.35;;
65998;SDS011;52766;56.008;37.440;2023-09-19T05:06:10;12.43;;;7.63;;
65998;SDS011;52766;56.008;37.440;2023-09-19T05:08:39;13.60;;;7.57;;
65998;SDS011;52766;56.008;37.440;2023-09-19T05:11:07;16.52;;;7.35;;
65998;SDS011;52766;56.008;37.440;2023-09-19T05:13:38;14.43;;;7.55;;
65998;SDS011;52766;56.008;37.440;2023-09-19T05:16:04;14.90;;;8.48;;
65998;SDS011;52766;56.008;37.440;2023-09-19T05:18:30;12.77;;;7.38;;
65998;SDS011;52766;56.008;37.440;2023-09-19T05:20:57;12.93;;;7.38;;
65998;SDS011;52766;56.008;37.440;2023-09-19T05:23:24;15.80;;;8.18;;
65998;SDS011;52766;56.008;37.440;2023-09-19T05:25:50;14.93;;;8.73;;
65998;SDS011;52766;56.008;37.440;2023-09-19T05:28:17;16.17;;;8.82;;
65998;SDS011;52766;56.008;37.440;2023-09-19T05:30:43;15.68;;;9.18;;
65998;SDS011;52766;56.008;37.440;2023-09-19T05:36:17;15.32;;;9.13;;
65998;SDS011;52766;56.008;37.440;2023-09-19T05:42:59;17.48;;;10.07;;
65998;SDS011;52766;56.008;37.440;2023-09-19T05:45:50;16.92;;;9.65;;
65998;SDS011;52766;56.008;37.440;2023-09-19T06:00:25;14.90;;;8.70;;
65998;SDS011;52766;56.008;37.440;2023-09-19T06:02:53;17.80;;;10.18;;
65998;SDS011;52766;56.008;37.440;2023-09-19T06:05:21;14.65;;;8.75;;
65998;SDS011;52766;56.008;37.440;2023-09-19T06:07:47;20.50;;;9.13;;
65998;SDS011;52766;56.008;37.440;2023-09-19T06:10:14;17.48;;;9.45;;
65998;SDS011;52766;56.008;37.440;2023-09-19T06:12:43;19.33;;;10.63;;
65998;SDS011;52766;56.008;37.440;2023-09-19T06:15:11;17.25;;;10.25;;
65998;SDS011;52766;56.008;37.440;2023-09-19T06:17:49;21.33;;;11.15;;
65998;SDS011;52766;56.008;37.440;2023-09-19T06:20:16;19.02;;;10.13;;
65998;SDS011;52766;56.008;37.440;2023-09-19T06:22:45;24.65;;;10.45;;
65998;SDS011;52766;56.008;37.440;2023-09-19T06:25:13;15.40;;;9.90;;
65998;SDS011;52766;56.008;37.440;2023-09-19T06:30:13;17.17;;;10.48;;
65998;SDS011;52766;56.008;37.440;2023-09-19T06:32:43;16.55;;;9.82;;
65998;SDS011;52766;56.008;37.440;2023-09-19T06:35:13;19.42;;;10.50;;
65998;SDS011;52766;56.008;37.440;2023-09-19T06:37:40;18.00;;;10.55;;
65998;SDS011;52766;56.008;37.440;2023-09-19T06:40:10;16.73;;;9.80;;
65998;SDS011;52766;56.008;37.440;2023-09-19T06:42:44;18.25;;;10.43;;
65998;SDS011;52766;56.008;37.440;2023-09-19T06:45:46;16.70;;;10.30;;
65998;SDS011;52766;56.008;37.440;2023-09-19T06:48:19;19.55;;;10.40;;
65998;SDS011;52766;56.008;37.440;2023-09-19T06:50:49;21.00;;;11.43;;
65998;SDS011;52766;56.008;37.440;2023-09-19T06:53:19;18.00;;;11.15;;
65998;SDS011;52766;56.008;37.440;2023-09-19T06:55:50;19.65;;;11.25;;
65998;SDS011;52766;56.008;37.440;2023-09-19T06:58:21;19.20;;;10.63;;
65998;SDS011;52766;56.008;37.440;2023-09-19T07:00:55;20.45;;;12.10;;
65998;SDS011;52766;56.008;37.440;2023-09-19T07:03:23;21.52;;;10.25;;
65998;SDS011;52766;56.008;37.440;2023-09-19T07:05:58;20.00;;;11.68;;
65998;SDS011;52766;56.008;37.440;2023-09-19T07:08:25;18.05;;;10.93;;
65998;SDS011;52766;56.008;37.440;2023-09-19T07:11:02;16.42;;;9.80;;
65998;SDS011;52766;56.008;37.440;2023-09-19T07:13:32;18.15;;;10.80;;
65998;SDS011;52766;56.008;37.440;2023-09-19T07:16:00;23.60;;;11.02;;
65998;SDS011;52766;56.008;37.440;2023-09-19T07:18:26;21.50;;;11.88;;
65998;SDS011;52766;56.008;37.440;2023-09-19T07:20:56;19.33;;;11.00;;
65998;SDS011;52766;56.008;37.440;2023-09-19T07:23:24;21.63;;;12.00;;
65998;SDS011;52766;56.008;37.440;2023-09-19T07:25:56;18.55;;;10.50;;
65998;SDS011;52766;56.008;37.440;2023-09-19T07:28:30;20.52;;;11.18;;
65998;SDS011;52766;56.008;37.440;2023-09-19T07:30:56;17.17;;;9.70;;
65998;SDS011;52766;56.008;37.440;2023-09-19T07:33:33;20.23;;;12.43;;
65998;SDS011;52766;56.008;37.440;2023-09-19T07:35:59;20.90;;;11.35;;
65998;SDS011;52766;56.008;37.440;2023-09-19T07:38:26;18.27;;;11.50;;
65998;SDS011;52766;56.008;37.440;2023-09-19T07:41:01;22.30;;;11.82;;
65998;SDS011;52766;56.008;37.440;2023-09-19T07:43:36;18.08;;;10.10;;
65998;SDS011;52766;56.008;37.440;2023-09-19T07:46:06;18.30;;;11.75;;
65998;SDS011;52766;56.008;37.440;2023-09-19T07:48:41;20.02;;;10.98;;
65998;SDS011;52766;56.008;37.440;2023-09-19T07:51:14;18.48;;;10.93;;
65998;SDS011;52766;56.008;37.440;2023-09-19T07:53:41;22.40;;;12.63;;
65998;SDS011;52766;56.008;37.440;2023-09-19T07:58:43;21.73;;;12.60;;
65998;SDS011;52766;56.008;37.440;2023-09-19T08:01:12;25.10;;;12.32;;
65998;SDS011;52766;56.008;37.440;2023-09-19T08:03:41;22.60;;;12.43;;
65998;SDS011;52766;56.008;37.440;2023-09-19T08:06:11;21.25;;;11.57;;
65998;SDS011;52766;56.008;37.440;2023-09-19T08:08:38;24.88;;;13.85;;
65998;SDS011;52766;56.008;37.440;2023-09-19T08:11:10;25.38;;;11.68;;
65998;SDS011;52766;56.008;37.440;2023-09-19T08:13:48;21.83;;;13.20;;
65998;SDS011;52766;56.008;37.440;2023-09-19T08:16:15;24.02;;;13.85;;
65998;SDS011;52766;56.008;37.440;2023-09-19T08:18:41;19.65;;;11.77;;
65998;SDS011;52766;56.008;37.440;2023-09-19T08:21:11;19.70;;;11.73;;
65998;SDS011;52766;56.008;37.440;2023-09-19T08:23:37;20.48;;;12.93;;
65998;SDS011;52766;56.008;37.440;2023-09-19T08:26:09;27.02;;;14.40;;
65998;SDS011;52766;56.008;37.440;2023-09-19T08:28:35;20.00;;;12.60;;
65998;SDS011;52766;56.008;37.440;2023-09-19T08:31:05;19.75;;;12.10;;
65998;SDS011;52766;56.008;37.440;2023-09-19T08:33:33;22.15;;;12.73;;
65998;SDS011;52766;56.008;37.440;2023-09-19T08:35:59;22.02;;;11.30;;
65998;SDS011;52766;56.008;37.440;2023-09-19T08:38:26;20.58;;;11.57;;
65998;SDS011;52766;56.008;37.440;2023-09-19T08:41:05;24.27;;;13.02;;
65998;SDS011;52766;56.008;37.440;2023-09-19T08:43:35;20.70;;;11.68;;
65998;SDS011;52766;56.008;37.440;2023-09-19T08:46:11;24.80;;;13.73;;
65998;SDS011;52766;56.008;37.440;2023-09-19T08:48:46;24.60;;;13.20;;
65998;SDS011;52766;56.008;37.440;2023-09-19T08:51:27;25.58;;;13.88;;
65998;SDS011;52766;56.008;37.440;2023-09-19T08:54:03;33.17;;;17.70;;
65998;SDS011;52766;56.008;37.440;2023-09-19T08:56:31;27.75;;;15.20;;
65998;SDS011;52766;56.008;37.440;2023-09-19T08:59:02;26.35;;;14.70;;
65998;SDS011;52766;56.008;37.440;2023-09-19T09:01:29;26.73;;;14.73;;
65998;SDS011;52766;56.008;37.440;2023-09-19T09:03:58;23.45;;;13.73;;
65998;SDS011;52766;56.008;37.440;2023-09-19T09:06:25;20.58;;;13.60;;
65998;SDS011;52766;56.008;37.440;2023-09-19T09:08:51;23.10;;;13.48;;
65998;SDS011;52766;56.008;37.440;2023-09-19T09:11:18;28.05;;;16.13;;
65998;SDS011;52766;56.008;37.440;2023-09-19T09:13:45;28.48;;;15.70;;
65998;SDS011;52766;56.008;37.440;2023-09-19T09:16:14;23.23;;;13.73;;
65998;SDS011;52766;56.008;37.440;2023-09-19T09:18:44;25.38;;;13.85;;
65998;SDS011;52766;56.008;37.440;2023-09-19T09:21:11;26.63;;;15.10;;
65998;SDS011;52766;56.008;37.440;2023-09-19T09:23:41;26.45;;;15.07;;
65998;SDS011;52766;56.008;37.440;2023-09-19T09:26:09;23.20;;;13.93;;
65998;SDS011;52766;56.008;37.440;2023-09-19T09:28:35;20.48;;;13.30;;
65998;SDS011;52766;56.008;37.440;2023-09-19T09:31:04;23.02;;;12.32;;
65998;SDS011;52766;56.008;37.440;2023-09-19T09:33:35;25.30;;;14.25;;
65998;SDS011;52766;56.008;37.440;2023-09-19T09:36:02;23.60;;;13.07;;
65998;SDS011;52766;56.008;37.440;2023-09-19T09:38:29;23.05;;;13.73;;
65998;SDS011;52766;56.008;37.440;2023-09-19T09:41:21;30.52;;;14.43;;
65998;SDS011;52766;56.008;37.440;2023-09-19T09:44:16;25.80;;;12.98;;
65998;SDS011;52766;56.008;37.440;2023-09-19T09:46:52;22.80;;;14.07;;
65998;SDS011;52766;56.008;37.440;2023-09-19T09:49:39;21.65;;;12.63;;
65998;SDS011;52766;56.008;37.440;2023-09-19T09:52:18;25.13;;;14.25;;
65998;SDS011;52766;56.008;37.440;2023-09-19T09:55:02;22.27;;;12.52;;
65998;SDS011;52766;56.008;37.440;2023-09-19T10:00:55;22.70;;;12.95;;
65998;SDS011;52766;56.008;37.440;2023-09-19T10:03:32;32.38;;;13.50;;
65998;SDS011;52766;56.008;37.440;2023-09-19T10:06:01;20.75;;;12.75;;
65998;SDS011;52766;56.008;37.440;2023-09-19T10:08:39;23.73;;;13.98;;
65998;SDS011;52766;56.008;37.440;2023-09-19T10:11:16;18.67;;;12.35;;
65998;SDS011;52766;56.008;37.440;2023-09-19T10:13:51;25.13;;;12.55;;
65998;SDS011;52766;56.008;37.440;2023-09-19T10:16:35;25.35;;;14.13;;
65998;SDS011;52766;56.008;37.440;2023-09-19T10:19:08;23.35;;;14.63;;
65998;SDS011;52766;56.008;37.440;2023-09-19T10:21:38;27.88;;;15.20;;
65998;SDS011;52766;56.008;37.440;2023-09-19T10:24:05;25.35;;;13.63;;
65998;SDS011;52766;56.008;37.440;2023-09-19T10:26:34;29.85;;;15.07;;
65998;SDS011;52766;56.008;37.440;2023-09-19T10:29:02;22.73;;;11.98;;
65998;SDS011;52766;56.008;37.440;2023-09-19T10:31:38;32.88;;;15.90;;
65998;SDS011;52766;56.008;37.440;2023-09-19T10:34:06;26.65;;;15.52;;
65998;SDS011;52766;56.008;37.440;2023-09-19T10:36:34;29.40;;;15.38;;
65998;SDS011;52766;56.008;37.440;2023-09-19T10:39:01;24.40;;;13.32;;
65998;SDS011;52766;56.008;37.440;2023-09-19T10:41:34;25.38;;;15.45;;
65998;SDS011;52766;56.008;37.440;2023-09-19T10:44:03;32.67;;;16.10;;
65998;SDS011;52766;56.008;37.440;2023-09-19T10:46:34;24.90;;;15.35;;
65998;SDS011;52766;56.008;37.440;2023-09-19T10:49:04;25.40;;;15.30;;
65998;SDS011;52766;56.008;37.440;2023-09-19T10:51:30;23.48;;;14.50;;
65998;SDS011;52766;56.008;37.440;2023-09-19T10:54:05;24.88;;;14.73;;
65998;SDS011;52766;56.008;37.440;2023-09-19T10:56:42;24.95;;;16.15;;
65998;SDS011;52766;56.008;37.440;2023-09-19T10:59:16;27.17;;;16.33;;
65998;SDS011;52766;56.008;37.440;2023-09-19T11:02:15;28.08;;;17.48;;
65998;SDS011;52766;56.008;37.440;2023-09-19T11:04:46;24.30;;;15.57;;
65998;SDS011;52766;56.008;37.440;2023-09-19T11:07:14;25.52;;;14.85;;
65998;SDS011;52766;56.008;37.440;2023-09-19T11:15:02;26.58;;;15.02;;
65998;SDS011;52766;56.008;37.440;2023-09-19T11:20:17;27.75;;;15.95;;
65998;SDS011;52766;56.008;37.440;2023-09-19T11:25:53;28.90;;;16.88;;
65998;SDS011;52766;56.008;37.440;2023-09-19T11:30:44;25.15;;;16.02;;
65998;SDS011;52766;56.008;37.440;2023-09-19T11:33:15;33.08;;;17.92;;
65998;SDS011;52766;56.008;37.440;2023-09-19T11:43:46;29.02;;;16.85;;
65998;SDS011;52766;56.008;37.440;2023-09-19T11:46:20;31.35;;;15.93;;
65998;SDS011;52766;56.008;37.440;2023-09-19T11:48:49;29.52;;;15.88;;
65998;SDS011;52766;56.008;37.440;2023-09-19T11:51:17;30.35;;;16.17;;
65998;SDS011;52766;56.008;37.440;2023-09-19T11:53:54;27.75;;;16.85;;
65998;SDS011;52766;56.008;37.440;2023-09-19T11:56:23;32.72;;;17.17;;
65998;SDS011;52766;56.008;37.440;2023-09-19T11:58:54;30.95;;;15.75;;
65998;SDS011;52766;56.008;37.440;2023-09-19T12:01:31;28.25;;;15.43;;
65998;SDS011;52766;56.008;37.440;2023-09-19T12:04:01;32.03;;;16.77;;
65998;SDS011;52766;56.008;37.440;2023-09-19T12:06:35;26.85;;;14.82;;
65998;SDS011;52766;56.008;37.440;2023-09-19T12:09:04;28.35;;;15.13;;
65998;SDS011;52766;56.008;37.440;2023-09-19T12:11:40;32.47;;;15.75;;
65998;SDS011;52766;56.008;37.440;2023-09-19T12:14:09;28.92;;;15.85;;
65998;SDS011;52766;56.008;37.440;2023-09-19T12:16:35;28.92;;;17.13;;
65998;SDS011;52766;56.008;37.440;2023-09-19T12:19:22;27.70;;;16.17;;
65998;SDS011;52766;56.008;37.440;2023-09-19T12:21:58;28.50;;;16.60;;
65998;SDS011;52766;56.008;37.440;2023-09-19T12:24:30;30.48;;;17.80;;
65998;SDS011;52766;56.008;37.440;2023-09-19T12:27:00;30.75;;;16.88;;
65998;SDS011;52766;56.008;37.440;2023-09-19T12:29:49;28.02;;;17.98;;
65998;SDS011;52766;56.008;37.440;2023-09-19T12:32:16;30.10;;;17.17;;
65998;SDS011;52766;56.008;37.440;2023-09-19T12:34:51;27.35;;;16.45;;
65998;SDS011;52766;56.008;37.440;2023-09-19T12:37:21;28.13;;;16.58;;
65998;SDS011;52766;56.008;37.440;2023-09-19T12:39:50;29.75;;;15.73;;
65998;SDS011;52766;56.008;37.440;2023-09-19T12:42:38;27.75;;;16.73;;
65998;SDS011;52766;56.008;37.440;2023-09-19T12:45:04;29.80;;;16.55;;
65998;SDS011;52766;56.008;37.440;2023-09-19T12:47:35;27.85;;;16.20;;
65998;SDS011;52766;56.008;37.440;2023-09-19T12:50:07;28.35;;;16.17;;
65998;SDS011;52766;56.008;37.440;2023-09-19T12:52:49;25.70;;;14.45;;
65998;SDS011;52766;56.008;37.440;2023-09-19T12:55:22;33.78;;;17.02;;
65998;SDS011;52766;56.008;37.440;2023-09-19T13:00:48;32.58;;;16.85;;
65998;SDS011;52766;56.008;37.440;2023-09-19T13:03:30;24.45;;;14.48;;
65998;SDS011;52766;56.008;37.440;2023-09-19T13:06:06;27.27;;;14.98;;
65998;SDS011;52766;56.008;37.440;2023-09-19T13:11:52;29.95;;;16.45;;
65998;SDS011;52766;56.008;37.440;2023-09-19T13:17:19;23.60;;;14.85;;
65998;SDS011;52766;56.008;37.440;2023-09-19T13:19:51;25.48;;;14.82;;
65998;SDS011;52766;56.008;37.440;2023-09-19T13:25:14;30.27;;;15.40;;
65998;SDS011;52766;56.008;37.440;2023-09-19T13:27:49;29.70;;;14.73;;
65998;SDS011;52766;56.008;37.440;2023-09-19T13:30:38;30.77;;;16.10;;
65998;SDS011;52766;56.008;37.440;2023-09-19T13:33:11;25.52;;;15.65;;
65998;SDS011;52766;56.008;37.440;2023-09-19T13:35:43;27.60;;;15.82;;
65998;SDS011;52766;56.008;37.440;2023-09-19T13:38:09;25.00;;;14.75;;
65998;SDS011;52766;56.008;37.440;2023-09-19T13:40:40;26.13;;;15.60;;
65998;SDS011;52766;56.008;37.440;2023-09-19T13:43:15;28.95;;;15.90;;
65998;SDS011;52766;56.008;37.440;2023-09-19T13:45:53;27.10;;;14.75;;
65998;SDS011;52766;56.008;37.440;2023-09-19T13:48:40;28.15;;;15.60;;
65998;SDS011;52766;56.008;37.440;2023-09-19T13:51:06;25.85;;;13.88;;
65998;SDS011;52766;56.008;37.440;2023-09-19T13:53:34;24.02;;;14.90;;
65998;SDS011;52766;56.008;37.440;2023-09-19T13:56:04;22.77;;;14.27;;
65998;SDS011;52766;56.008;37.440;2023-09-19T13:58:43;25.55;;;15.30;;
65998;SDS011;52766;56.008;37.440;2023-09-19T14:01:12;22.98;;;13.48;;
65998;SDS011;52766;56.008;37.440;2023-09-19T14:03:39;24.73;;;13.85;;
65998;SDS011;52766;56.008;37.440;2023-09-19T14:06:19;23.90;;;14.40;;
65998;SDS011;52766;56.008;37.440;2023-09-19T14:08:46;21.23;;;13.27;;
65998;SDS011;52766;56.008;37.440;2023-09-19T14:11:15;25.90;;;13.82;;
65998;SDS011;52766;56.008;37.440;2023-09-19T14:13:45;24.20;;;13.90;;
65998;SDS011;52766;56.008;37.440;2023-09-19T14:16:15;20.90;;;14.10;;
65998;SDS011;52766;56.008;37.440;2023-09-19T14:18:45;22.23;;;13.10;;
65998;SDS011;52766;56.008;37.440;2023-09-19T14:23:51;25.63;;;13.70;;
65998;SDS011;52766;56.008;37.440;2023-09-19T14:26:19;25.00;;;14.18;;
65998;SDS011;52766;56.008;37.440;2023-09-19T14:28:45;22.70;;;13.52;;
65998;SDS011;52766;56.008;37.440;2023-09-19T14:31:11;24.67;;;14.48;;
65998;SDS011;52766;56.008;37.440;2023-09-19T14:33:39;20.58;;;13.00;;
65998;SDS011;52766;56.008;37.440;2023-09-19T14:36:07;22.02;;;12.57;;
65998;SDS011;52766;56.008;37.440;2023-09-19T14:38:46;23.52;;;13.68;;
65998;SDS011;52766;56.008;37.440;2023-09-19T14:41:29;18.70;;;12.70;;
65998;SDS011;52766;56.008;37.440;2023-09-19T14:44:56;29.95;;;14.18;;
65998;SDS011;52766;56.008;37.440;2023-09-19T14:48:45;20.20;;;13.23;;
65998;SDS011;52766;56.008;37.440;2023-09-19T14:51:18;18.50;;;11.65;;
65998;SDS011;52766;56.008;37.440;2023-09-19T14:56:38;19.33;;;12.20;;
65998;SDS011;52766;56.008;37.440;2023-09-19T14:59:08;20.42;;;12.82;;
65998;SDS011;52766;56.008;37.440;2023-09-19T15:01:36;25.73;;;12.88;;
65998;SDS011;52766;56.008;37.440;2023-09-19T15:04:06;20.50;;;12.25;;
65998;SDS011;52766;56.008;37.440;2023-09-19T15:06:35;20.73;;;12.18;;
65998;SDS011;52766;56.008;37.440;2023-09-19T15:09:09;22.05;;;12.85;;
65998;SDS011;52766;56.008;37.440;2023-09-19T15:11:35;24.52;;;13.35;;
65998;SDS011;52766;56.008;37.440;2023-09-19T15:14:01;21.50;;;14.30;;
65998;SDS011;52766;56.008;37.440;2023-09-19T15:16:29;24.00;;;13.68;;
65998;SDS011;52766;56.008;37.440;2023-09-19T15:19:01;24.10;;;12.60;;
65998;SDS011;52766;56.008;37.440;2023-09-19T15:22:10;26.92;;;14.13;;
65998;SDS011;52766;56.008;37.440;2023-09-19T15:24:40;22.90;;;13.65;;
65998;SDS011;52766;56.008;37.440;2023-09-19T15:27:20;26.95;;;14.48;;
65998;SDS011;52766;56.008;37.440;2023-09-19T15:30:04;24.70;;;14.07;;
65998;SDS011;52766;56.008;37.440;2023-09-19T15:35:39;27.58;;;14.15;;
65998;SDS011;52766;56.008;37.440;2023-09-19T15:41:48;25.90;;;13.70;;
65998;SDS011;52766;56.008;37.440;2023-09-19T15:44:19;28.92;;;14.45;;
65998;SDS011;52766;56.008;37.440;2023-09-19T15:47:03;25.60;;;14.18;;
65998;SDS011;52766;56.008;37.440;2023-09-19T15:52:46;33.17;;;14.65;;
65998;SDS011;52766;56.008;37.440;2023-09-19T16:02:44;30.63;;;16.42;;
65998;SDS011;52766;56.008;37.440;2023-09-19T16:05:27;24.92;;;15.02;;
65998;SDS011;52766;56.008;37.440;2023-09-19T16:08:06;33.22;;;16.33;;
65998;SDS011;52766;56.008;37.440;2023-09-19T16:10:36;29.63;;;16.35;;
65998;SDS011;52766;56.008;37.440;2023-09-19T16:13:28;33.92;;;15.45;;
65998;SDS011;52766;56.008;37.440;2023-09-19T16:19:55;24.13;;;15.57;;
65998;SDS011;52766;56.008;37.440;2023-09-19T16:26:35;28.65;;;17.52;;
65998;SDS011;52766;56.008;37.440;2023-09-19T16:29:03;33.85;;;17.15;;